Serenade Of The Seas — C6FV8 — position and weather

sailwx.info

Track history (hours):
 
Tides and Currents Weather Stations Pressure Air Temp Water Temp Dewpoint Dewpoint Depression Visibility Wind Speed Wind Dir Waves Ship Positions

Serenade Of The Seas

Operator: Royal Caribbean Cruises Ltd

Last reported at 2014-Sep-20 20:32 UTC. Time now 2014-Oct-02 16:30 UTC.
Position N 36°25' E 015°18'.
Warning: this ship's position is 11 days out of date.

Length 294 m; draft 8.5 m.

Type: Ship. MMSI: 311492000.

Date/timePositionNaut miles runAvg speedWind from/ knotsBaromVisibWave heightAir tempDewpointWater temp
2014-Sep-20 20:32N 36°25' E 015°18'10 9.7
2014-Sep-20 19:30N 36°18' E 015°08'9 9.8
2014-Sep-20 18:34N 36°13' E 014°60'1010.0
2014-Sep-20 17:33N 36°06' E 014°50'1010.0
2014-Sep-20 16:34N 36°00' E 014°40'10 9.6
2014-Sep-20 15:34N 35°54' E 014°31'1 0.7
2014-Sep-20 14:28N 35°53' E 014°31'0 0.0
2014-Sep-20 13:25N 35°53' E 014°31'0 0.0
2014-Sep-20 12:25N 35°53' E 014°31'0 0.0
2014-Sep-20 11:31N 35°53' E 014°31'0 0.0
2014-Sep-20 10:31N 35°53' E 014°31'0 0.0
2014-Sep-20 09:31N 35°53' E 014°31'0 0.0
2014-Sep-20 08:31N 35°53' E 014°31'0 0.0
2014-Sep-20 07:31N 35°53' E 014°31'1 0.4
2014-Sep-20 05:19N 35°54' E 014°31'810.1
2014-Sep-20 04:31N 35°59' E 014°39'4213.7
2014-Sep-20 01:26N 36°26' E 015°20'  
Track history (hours):
 
Tides and Currents Weather Stations Pressure Air Temp Water Temp Dewpoint Dewpoint Depression Visibility Wind Speed Wind Dir Waves Ship Positions

Serenade Of The Seas

Operator: Royal Caribbean Cruises Ltd

Last reported at 2014-Sep-20 20:32 UTC. Time now 2014-Oct-02 16:30 UTC.
Position N 36°25' E 015°18'.
Warning: this ship's position is 11 days out of date.

Length 294 m; draft 8.5 m.

Type: Ship. MMSI: 311492000.

Date/timePositionNaut miles runAvg speedWind from/ knotsBaromVisibWave heightAir tempDewpointWater temp
2014-Sep-20 20:32N 36°25' E 015°18'10 9.7
2014-Sep-20 19:30N 36°18' E 015°08'9 9.8
2014-Sep-20 18:34N 36°13' E 014°60'1010.0
2014-Sep-20 17:33N 36°06' E 014°50'1010.0
2014-Sep-20 16:34N 36°00' E 014°40'10 9.6
2014-Sep-20 15:34N 35°54' E 014°31'1 0.7
2014-Sep-20 14:28N 35°53' E 014°31'0 0.0
2014-Sep-20 13:25N 35°53' E 014°31'0 0.0
2014-Sep-20 12:25N 35°53' E 014°31'0 0.0
2014-Sep-20 11:31N 35°53' E 014°31'0 0.0
2014-Sep-20 10:31N 35°53' E 014°31'0 0.0
2014-Sep-20 09:31N 35°53' E 014°31'0 0.0
2014-Sep-20 08:31N 35°53' E 014°31'0 0.0
2014-Sep-20 07:31N 35°53' E 014°31'1 0.4
2014-Sep-20 05:19N 35°54' E 014°31'810.1
2014-Sep-20 04:31N 35°59' E 014°39'4213.7
2014-Sep-20 01:26N 36°26' E 015°20'  

Dump ship's entire track history